Elkader, Iowa
Current Conditions -  °F | °C
As of 5:35 AM on Friday 24 Oct 2014 (Local Time) from KPDC Reporting Station
Haze Haze  
Wind Chill: 51°   Ceiling: 200
Heat Index: 51°   Visibility: 0.75mi
Dew Point: 50°   Wind: 3mph
Humidity: 95%   Direction: 100°E
Pressure: 30.02"   Gusts: NA
Location:  42.85°N, 91.41°W
Report Text: KPDC 241035Z AUTO 10003KT 3/4SM BR OVC002 11/10 A3002 RMK AO2 T01050098
Loading
Personal Weather Stations






























Interactive Weather Map
Tropical Storm Tracking
New forecast layout! Learn more

10-Day Weather Forecast

Advertisements
Track Severe Weather on mobile